createdAt,value
2019-05-18T00:02:18.892Z,89.91
2019-05-18T00:04:50.470Z,89.84
2019-05-18T00:07:21.681Z,89.48
2019-05-18T00:09:53.040Z,89.47
2019-05-18T00:12:24.297Z,89.52
2019-05-18T00:14:55.871Z,90.14
2019-05-18T00:17:27.430Z,90.14
2019-05-18T00:19:58.838Z,91.05
2019-05-18T00:22:30.059Z,90.84
2019-05-18T00:25:01.591Z,90.60
2019-05-18T00:27:33.368Z,90.26
2019-05-18T00:30:05.356Z,90.09
2019-05-18T00:32:36.556Z,90.16
2019-05-18T00:35:08.284Z,90.41
2019-05-18T00:37:39.896Z,90.99
2019-05-18T00:40:11.493Z,90.53
2019-05-18T00:42:43.012Z,90.25
2019-05-18T00:45:14.689Z,89.87
2019-05-18T00:47:46.182Z,89.00
2019-05-18T00:50:17.985Z,88.53
2019-05-18T00:52:49.400Z,88.21
2019-05-18T00:55:20.793Z,88.63
2019-05-18T00:57:52.081Z,89.40
2019-05-18T01:00:23.408Z,89.40
2019-05-18T01:02:55.076Z,89.80
2019-05-18T01:05:26.222Z,90.38
2019-05-18T01:07:57.737Z,90.19
2019-05-18T01:10:29.090Z,90.02
2019-05-18T01:13:00.562Z,89.99
2019-05-18T01:15:31.933Z,89.94
2019-05-18T01:18:02.959Z,90.28
2019-05-18T01:20:34.123Z,90.74
2019-05-18T01:23:05.259Z,90.87
2019-05-18T01:25:36.361Z,90.97
2019-05-18T01:28:07.817Z,90.87
2019-05-18T01:30:39.353Z,91.12
2019-05-18T01:33:10.553Z,91.11
2019-05-18T01:35:41.987Z,91.02
2019-05-18T01:38:13.617Z,90.97
2019-05-18T01:40:44.898Z,91.45
2019-05-18T01:43:16.806Z,91.73
2019-05-18T01:45:48.672Z,91.87
2019-05-18T01:48:20.222Z,92.13
2019-05-18T01:50:51.811Z,92.10
2019-05-18T01:53:23.288Z,92.28
2019-05-18T01:55:54.850Z,92.34
2019-05-18T01:58:26.237Z,92.21
2019-05-18T02:00:57.613Z,92.11
2019-05-18T02:03:29.339Z,92.73
2019-05-18T02:06:00.887Z,93.18
2019-05-18T02:08:33.489Z,93.25
2019-05-18T02:11:05.172Z,92.96
2019-05-18T02:13:36.635Z,92.66
2019-05-18T02:16:08.294Z,92.79
2019-05-18T02:18:39.867Z,92.93
2019-05-18T02:21:11.399Z,92.79
2019-05-18T02:23:42.849Z,93.01
2019-05-18T02:26:14.438Z,92.84
2019-05-18T02:28:45.847Z,93.14
2019-05-18T02:31:17.339Z,93.21
2019-05-18T02:33:49.016Z,93.62
2019-05-18T02:36:20.812Z,93.41
2019-05-18T02:38:52.266Z,92.97
2019-05-18T02:41:24.068Z,93.22
2019-05-18T02:43:55.543Z,93.20
2019-05-18T02:46:27.090Z,93.13
2019-05-18T02:48:58.742Z,93.57
2019-05-18T02:51:30.393Z,93.83
2019-05-18T02:54:01.779Z,94.06
2019-05-18T02:56:33.381Z,94.02
2019-05-18T02:59:04.779Z,94.22
2019-05-18T03:01:36.405Z,94.28
2019-05-18T03:04:08.885Z,94.64
2019-05-18T03:06:40.451Z,94.68
2019-05-18T03:09:11.799Z,95.01
2019-05-18T03:11:44.109Z,95.39
2019-05-18T03:14:15.589Z,95.29
2019-05-18T03:16:46.883Z,95.05
2019-05-18T03:19:18.200Z,94.02
2019-05-18T03:21:49.634Z,93.69
2019-05-18T03:24:20.931Z,93.83
2019-05-18T03:26:52.251Z,93.65
2019-05-18T03:29:23.583Z,94.33
2019-05-18T03:31:55.288Z,95.50
2019-05-18T03:34:26.608Z,95.96
2019-05-18T03:36:58.428Z,96.36
2019-05-18T03:39:30.532Z,96.11
2019-05-18T03:42:02.389Z,95.68
2019-05-18T03:44:35.284Z,95.36
2019-05-18T03:47:07.067Z,95.03
2019-05-18T03:49:38.618Z,95.12
2019-05-18T03:52:10.000Z,94.70
2019-05-18T03:54:41.335Z,94.33
2019-05-18T03:57:12.728Z,94.08
2019-05-18T03:59:44.310Z,94.31
2019-05-18T04:02:15.706Z,95.24
2019-05-18T04:04:47.394Z,95.91
2019-05-18T04:07:18.935Z,96.37
2019-05-18T04:09:50.315Z,96.88
2019-05-18T04:12:21.616Z,97.17
2019-05-18T04:14:53.236Z,97.23
2019-05-18T04:17:24.822Z,97.21
2019-05-18T04:19:56.298Z,97.11
2019-05-18T04:22:27.693Z,96.79
2019-05-18T04:24:59.525Z,96.85
2019-05-18T04:27:31.334Z,96.46
2019-05-18T04:30:03.152Z,96.28
2019-05-18T04:32:34.749Z,96.68
2019-05-18T04:35:06.582Z,96.47
2019-05-18T04:37:38.223Z,96.11
2019-05-18T04:40:10.224Z,96.23
2019-05-18T04:42:41.526Z,96.28
2019-05-18T04:45:13.053Z,96.44
2019-05-18T04:47:48.536Z,96.82
2019-05-18T04:50:17.949Z,96.92
2019-05-18T04:52:49.451Z,96.88
2019-05-18T04:55:21.092Z,97.33
2019-05-18T04:57:52.655Z,97.00
2019-05-18T05:00:24.087Z,96.81
2019-05-18T05:02:55.817Z,96.98
2019-05-18T05:05:27.249Z,96.97
2019-05-18T05:07:58.801Z,96.20
2019-05-18T05:10:30.135Z,95.23
2019-05-18T05:13:01.457Z,94.26
2019-05-18T05:15:32.652Z,93.99
2019-05-18T05:18:03.869Z,93.20
2019-05-18T05:20:35.101Z,92.20
2019-05-18T05:23:06.392Z,93.61
2019-05-18T05:25:37.898Z,92.81
2019-05-18T05:28:09.503Z,91.97
2019-05-18T05:30:40.765Z,91.50
2019-05-18T05:33:11.911Z,90.61
2019-05-18T05:35:43.110Z,90.43
2019-05-18T05:38:14.088Z,90.90
2019-05-18T05:40:45.115Z,90.77
2019-05-18T05:43:16.263Z,90.37
2019-05-18T05:45:47.574Z,90.35
2019-05-18T05:48:18.981Z,89.91
2019-05-18T05:50:50.312Z,88.79
2019-05-18T05:53:21.701Z,88.67
2019-05-18T05:55:52.875Z,88.27
2019-05-18T05:58:24.154Z,89.06
2019-05-18T06:00:55.688Z,89.36
2019-05-18T06:03:26.892Z,88.41
2019-05-18T06:05:58.060Z,90.18
2019-05-18T06:08:29.130Z,90.42
2019-05-18T06:11:00.430Z,91.08
2019-05-18T06:13:31.809Z,90.74
2019-05-18T06:16:02.840Z,91.39
2019-05-18T06:18:35.048Z,92.40
2019-05-18T06:21:06.115Z,91.62
2019-05-18T06:23:37.536Z,90.19
2019-05-18T06:26:08.874Z,89.18
2019-05-18T06:28:40.033Z,89.77
2019-05-18T06:31:11.269Z,88.27
2019-05-18T06:33:42.471Z,86.80
2019-05-18T06:36:13.539Z,84.66
2019-05-18T06:38:44.868Z,84.27
2019-05-18T06:41:16.138Z,81.78
2019-05-18T06:43:47.059Z,80.41
2019-05-18T06:46:18.508Z,80.41
2019-05-18T06:48:49.471Z,74.66
2019-05-18T06:51:20.448Z,75.17
2019-05-18T06:53:51.900Z,73.61
2019-05-18T06:56:23.637Z,75.37
2019-05-18T06:58:57.123Z,74.06
2019-05-18T07:01:28.992Z,73.90
2019-05-18T07:04:00.272Z,73.90
2019-05-18T07:06:31.055Z,75.70
2019-05-18T07:09:02.333Z,73.19
2019-05-18T07:11:34.698Z,71.14
2019-05-18T07:14:05.865Z,69.42
2019-05-18T07:16:36.934Z,68.59
2019-05-18T07:19:08.088Z,69.44
2019-05-18T07:21:39.193Z,69.53
2019-05-18T07:24:10.545Z,65.80
2019-05-18T07:26:41.749Z,67.06
2019-05-18T07:29:14.444Z,67.26
2019-05-18T07:31:45.516Z,67.54
2019-05-18T07:34:16.470Z,67.60
2019-05-18T07:36:47.779Z,66.72
2019-05-18T07:39:18.722Z,66.78
2019-05-18T07:41:50.160Z,66.47
2019-05-18T07:44:21.149Z,66.58
2019-05-18T07:46:52.449Z,66.24
2019-05-18T07:49:23.644Z,67.03
2019-05-18T07:51:55.332Z,65.70
2019-05-18T07:54:26.690Z,65.59
2019-05-18T07:56:58.212Z,62.54
2019-05-18T07:59:29.360Z,65.17
2019-05-18T08:02:00.246Z,65.16
2019-05-18T08:04:32.369Z,62.59
2019-05-18T08:07:03.576Z,63.14
2019-05-18T08:09:35.420Z,64.81
2019-05-18T08:12:06.675Z,65.42
2019-05-18T08:14:37.949Z,64.56
2019-05-18T08:17:09.123Z,63.68
2019-05-18T08:19:40.224Z,60.88
2019-05-18T08:22:11.326Z,61.27
2019-05-18T08:24:43.538Z,61.25
2019-05-18T08:27:14.403Z,61.54
2019-05-18T08:29:45.648Z,60.77
2019-05-18T08:32:18.059Z,61.41
2019-05-18T08:34:49.314Z,59.71
2019-05-18T08:37:20.400Z,59.26
2019-05-18T08:39:51.828Z,61.09
2019-05-18T08:42:23.099Z,57.89
2019-05-18T08:44:54.213Z,55.92
2019-05-18T08:47:25.425Z,56.04
2019-05-18T08:49:56.637Z,56.06
2019-05-18T08:52:27.791Z,54.87
2019-05-18T08:54:59.037Z,56.82
2019-05-18T08:57:30.189Z,55.19
2019-05-18T09:00:01.601Z,55.00
2019-05-18T09:02:33.152Z,56.48
2019-05-18T09:05:05.063Z,56.56
2019-05-18T09:07:36.439Z,56.63
2019-05-18T09:10:08.532Z,51.96
2019-05-18T09:12:39.632Z,52.26
2019-05-18T09:15:13.123Z,51.07
2019-05-18T09:17:44.412Z,53.67
2019-05-18T09:20:15.641Z,53.86
2019-05-18T09:22:46.905Z,54.19
2019-05-18T09:25:18.093Z,53.69
2019-05-18T09:27:50.326Z,53.25
2019-05-18T09:30:22.051Z,54.49
2019-05-18T09:32:53.499Z,53.10
2019-05-18T09:35:24.672Z,54.74
2019-05-18T09:37:56.123Z,52.33
2019-05-18T09:40:27.661Z,51.52
2019-05-18T09:43:00.174Z,53.01
2019-05-18T09:45:31.456Z,53.58
2019-05-18T09:48:02.677Z,50.60
2019-05-18T09:50:33.725Z,52.87
2019-05-18T09:53:05.463Z,51.83
2019-05-18T09:55:36.811Z,53.17
2019-05-18T09:58:08.134Z,51.51
2019-05-18T10:00:39.298Z,52.25
2019-05-18T10:03:12.311Z,51.55
2019-05-18T10:05:43.324Z,52.43
2019-05-18T10:08:14.310Z,53.80
2019-05-18T10:10:45.745Z,50.82
2019-05-18T10:13:16.908Z,51.09
2019-05-18T10:15:48.462Z,50.91
2019-05-18T10:18:21.826Z,52.43
2019-05-18T10:20:52.480Z,52.56
2019-05-18T10:23:24.848Z,52.34
2019-05-18T10:25:55.866Z,50.43
2019-05-18T10:28:27.128Z,51.78
2019-05-18T10:30:58.126Z,50.43
2019-05-18T10:33:31.762Z,48.27
2019-05-18T10:36:02.930Z,47.61
2019-05-18T10:38:34.590Z,49.60
2019-05-18T10:41:05.801Z,50.46
2019-05-18T10:43:36.727Z,46.32
2019-05-18T10:46:07.989Z,49.35
2019-05-18T10:48:39.141Z,46.01
2019-05-18T10:51:10.363Z,48.05
2019-05-18T10:53:41.317Z,46.68
2019-05-18T10:56:12.568Z,46.76
2019-05-18T10:58:43.844Z,45.84
2019-05-18T11:01:15.171Z,42.77
2019-05-18T11:03:46.360Z,42.78
2019-05-18T11:06:17.345Z,42.31
2019-05-18T11:08:48.733Z,41.68
2019-05-18T11:11:19.843Z,43.83
2019-05-18T11:13:50.871Z,42.81
2019-05-18T11:16:21.974Z,39.67
2019-05-18T11:18:53.408Z,36.84
2019-05-18T11:21:24.697Z,36.98
2019-05-18T11:23:55.502Z,36.20
2019-05-18T11:26:26.311Z,36.84
2019-05-18T11:28:57.729Z,37.09
2019-05-18T11:31:28.740Z,38.28
2019-05-18T11:33:59.987Z,36.79
2019-05-18T11:36:30.801Z,35.94
2019-05-18T11:39:02.342Z,36.26
2019-05-18T11:41:33.508Z,38.45
2019-05-18T11:44:05.104Z,36.32
2019-05-18T11:46:36.156Z,38.46
2019-05-18T11:49:07.654Z,36.82
2019-05-18T11:51:38.782Z,38.91
2019-05-18T11:54:09.828Z,38.64
2019-05-18T11:56:40.693Z,38.74
2019-05-18T11:59:14.880Z,37.47
2019-05-18T12:01:44.349Z,39.94
2019-05-18T12:04:15.591Z,39.11
2019-05-18T12:06:47.465Z,34.36
2019-05-18T12:09:18.305Z,34.11
2019-05-18T12:11:49.032Z,34.38
2019-05-18T12:14:19.890Z,34.58
2019-05-18T12:16:50.845Z,36.61
2019-05-18T12:19:22.092Z,36.95
2019-05-18T12:21:53.456Z,39.22
2019-05-18T12:24:24.803Z,41.06
2019-05-18T12:26:55.657Z,37.48
2019-05-18T12:29:26.681Z,37.75
2019-05-18T12:31:57.487Z,37.23
2019-05-18T12:34:28.335Z,36.57
2019-05-18T12:36:59.401Z,37.91
2019-05-18T12:39:30.404Z,34.28
2019-05-18T12:42:01.699Z,37.23
2019-05-18T12:44:32.868Z,39.05
2019-05-18T12:47:03.995Z,37.08
2019-05-18T12:49:36.580Z,35.25
2019-05-18T12:52:07.666Z,34.61
2019-05-18T12:54:46.463Z,35.74
2019-05-18T12:57:12.592Z,35.15
2019-05-18T12:59:43.403Z,32.99
2019-05-18T13:02:14.805Z,35.19
2019-05-18T13:04:45.712Z,36.40
2019-05-18T13:07:16.584Z,37.10
2019-05-18T13:09:47.679Z,39.99
2019-05-18T13:12:18.749Z,41.72
2019-05-18T13:14:49.638Z,42.06
2019-05-18T13:17:21.423Z,41.39
2019-05-18T13:19:52.333Z,39.69
2019-05-18T13:22:23.228Z,39.52
2019-05-18T13:24:54.706Z,38.24
2019-05-18T13:27:38.269Z,38.31
2019-05-18T13:29:58.753Z,37.94
2019-05-18T13:32:29.606Z,39.00
2019-05-18T13:35:00.388Z,36.70
2019-05-18T13:37:31.137Z,38.10
2019-05-18T13:40:02.341Z,38.68
2019-05-18T13:42:33.191Z,38.48
2019-05-18T13:45:03.986Z,37.88
2019-05-18T13:47:35.440Z,36.77
2019-05-18T13:50:07.307Z,37.09
2019-05-18T13:52:38.633Z,39.86
2019-05-18T13:55:10.007Z,39.03
2019-05-18T13:57:41.243Z,38.75
2019-05-18T14:00:13.004Z,38.33
2019-05-18T14:02:44.096Z,38.75
2019-05-18T14:05:15.277Z,38.21
2019-05-18T14:07:46.124Z,38.28
2019-05-18T14:10:17.922Z,38.86
2019-05-18T14:12:49.282Z,39.75
2019-05-18T14:15:22.973Z,37.92
2019-05-18T14:17:53.665Z,36.94
2019-05-18T14:20:26.429Z,37.88
2019-05-18T14:22:57.442Z,37.92
2019-05-18T14:25:29.217Z,37.66
2019-05-18T14:28:00.172Z,38.53
2019-05-18T14:30:31.681Z,39.47
2019-05-18T14:33:02.977Z,38.15
2019-05-18T14:35:33.976Z,37.36
2019-05-18T14:38:05.167Z,37.66
2019-05-18T14:40:36.519Z,37.90
2019-05-18T14:43:07.905Z,37.53
2019-05-18T14:45:39.060Z,37.30
2019-05-18T14:48:10.045Z,37.29
2019-05-18T14:50:41.390Z,36.45
2019-05-18T14:53:12.951Z,34.92
2019-05-18T14:55:44.076Z,35.80
2019-05-18T14:58:15.190Z,35.62
2019-05-18T15:00:46.138Z,35.02
2019-05-18T15:03:17.315Z,35.85
2019-05-18T15:05:48.791Z,36.54
2019-05-18T15:08:19.903Z,36.72
2019-05-18T15:10:51.956Z,36.85
2019-05-18T15:13:23.061Z,37.44
2019-05-18T15:15:53.953Z,36.90
2019-05-18T15:18:25.158Z,36.29
2019-05-18T15:20:56.180Z,36.47
2019-05-18T15:23:27.408Z,36.69
2019-05-18T15:25:58.722Z,36.54
2019-05-18T15:28:29.865Z,36.91
2019-05-18T15:31:01.122Z,36.42
2019-05-18T15:33:32.546Z,36.63
2019-05-18T15:36:03.406Z,37.16
2019-05-18T15:38:34.322Z,36.61
2019-05-18T15:41:05.335Z,36.86
2019-05-18T15:43:36.477Z,37.03
2019-05-18T15:46:07.465Z,36.25
2019-05-18T15:48:38.496Z,36.32
2019-05-18T15:51:09.546Z,36.45
2019-05-18T15:53:40.705Z,36.43
2019-05-18T15:56:11.865Z,36.04
2019-05-18T15:58:43.073Z,35.89
2019-05-18T16:01:14.501Z,35.46
2019-05-18T16:03:45.983Z,35.60
2019-05-18T16:06:17.348Z,35.57
2019-05-18T16:08:48.776Z,35.41
2019-05-18T16:11:20.057Z,35.89
2019-05-18T16:13:50.905Z,35.89
2019-05-18T16:16:22.338Z,35.78
2019-05-18T16:18:53.498Z,35.97
2019-05-18T16:21:24.606Z,35.82
2019-05-18T16:23:55.533Z,36.17
2019-05-18T16:26:26.783Z,35.66
2019-05-18T16:28:57.952Z,35.86
2019-05-18T16:31:29.088Z,36.14
2019-05-18T16:34:00.135Z,36.60
2019-05-18T16:36:31.184Z,36.63
2019-05-18T16:39:02.383Z,36.43
2019-05-18T16:41:34.771Z,36.44
2019-05-18T16:44:08.560Z,36.66
2019-05-18T16:46:39.749Z,37.23
2019-05-18T16:49:11.108Z,37.31
2019-05-18T16:51:42.518Z,37.66
2019-05-18T16:54:14.615Z,37.70
2019-05-18T16:56:46.008Z,37.80
2019-05-18T16:59:17.220Z,37.92
2019-05-18T17:01:48.217Z,38.07
2019-05-18T17:04:19.310Z,37.96
2019-05-18T17:06:50.711Z,38.18
2019-05-18T17:09:21.726Z,38.24
2019-05-18T17:11:52.697Z,38.19
2019-05-18T17:14:23.712Z,37.83
2019-05-18T17:16:54.979Z,38.18
2019-05-18T17:19:26.513Z,38.15
2019-05-18T17:21:58.174Z,38.29
2019-05-18T17:24:29.200Z,38.50
2019-05-18T17:27:00.599Z,38.90
2019-05-18T17:29:31.926Z,39.33
2019-05-18T17:32:03.055Z,39.28
2019-05-18T17:34:34.010Z,39.70
2019-05-18T17:37:05.283Z,39.86
2019-05-18T17:39:36.520Z,40.21
2019-05-18T17:42:07.752Z,40.25
2019-05-18T17:44:39.248Z,40.59
2019-05-18T17:47:10.305Z,40.95
2019-05-18T17:49:41.604Z,41.17
2019-05-18T17:52:12.731Z,41.39
2019-05-18T17:54:43.847Z,41.33
2019-05-18T17:57:15.069Z,41.53
2019-05-18T17:59:49.449Z,42.35
2019-05-18T18:02:19.175Z,43.70
2019-05-18T18:04:54.160Z,42.68
2019-05-18T18:07:24.222Z,41.99
2019-05-18T18:09:55.413Z,41.96
2019-05-18T18:12:26.776Z,43.60
2019-05-18T18:14:58.051Z,43.95
2019-05-18T18:17:29.108Z,44.45
2019-05-18T18:20:00.136Z,44.15
2019-05-18T18:22:31.115Z,43.92
2019-05-18T18:25:02.104Z,46.67
2019-05-18T18:27:33.253Z,44.15
2019-05-18T18:30:04.564Z,43.51
2019-05-18T18:32:35.698Z,44.09
2019-05-18T18:35:07.085Z,42.81
2019-05-18T18:37:38.296Z,42.55
2019-05-18T18:40:09.889Z,42.84
2019-05-18T18:42:40.679Z,42.86
2019-05-18T18:45:11.996Z,43.63
2019-05-18T18:47:42.821Z,43.57
2019-05-18T18:50:14.292Z,43.87
2019-05-18T18:52:45.546Z,44.09
2019-05-18T18:55:16.921Z,44.09
2019-05-18T18:57:48.037Z,44.39
2019-05-18T19:00:19.597Z,44.02
2019-05-18T19:02:50.599Z,43.85
2019-05-18T19:05:22.011Z,44.18
2019-05-18T19:07:55.790Z,44.35
2019-05-18T19:10:26.887Z,43.90
2019-05-18T19:12:58.196Z,43.73
2019-05-18T19:15:29.909Z,44.29
2019-05-18T19:18:01.240Z,44.12
2019-05-18T19:20:32.669Z,44.16
2019-05-18T19:23:03.972Z,44.27
2019-05-18T19:25:34.954Z,44.31
2019-05-18T19:28:05.971Z,44.43
2019-05-18T19:30:37.229Z,44.43
2019-05-18T19:33:08.280Z,44.23
2019-05-18T19:35:39.447Z,44.31
2019-05-18T19:38:10.574Z,44.03
2019-05-18T19:40:41.574Z,43.78
2019-05-18T19:43:12.717Z,44.25
2019-05-18T19:45:43.972Z,46.55
2019-05-18T19:48:15.221Z,44.67
2019-05-18T19:50:47.269Z,45.24
2019-05-18T19:53:19.508Z,44.60
2019-05-18T19:55:50.425Z,46.79
2019-05-18T19:58:21.793Z,48.68
2019-05-18T20:00:52.965Z,50.30
2019-05-18T20:03:24.367Z,51.49
2019-05-18T20:05:55.339Z,52.35
2019-05-18T20:08:26.994Z,53.28
2019-05-18T20:10:58.211Z,53.76
2019-05-18T20:13:29.477Z,53.94
2019-05-18T20:16:00.650Z,55.34
2019-05-18T20:18:31.510Z,57.08
2019-05-18T20:21:02.634Z,57.42
2019-05-18T20:23:33.557Z,57.72
2019-05-18T20:26:04.736Z,59.17
2019-05-18T20:28:35.607Z,59.52
2019-05-18T20:31:06.649Z,59.18
2019-05-18T20:33:37.985Z,59.28
2019-05-18T20:36:08.954Z,60.20
2019-05-18T20:38:39.866Z,59.71
2019-05-18T20:41:11.020Z,59.70
2019-05-18T20:43:42.090Z,61.30
2019-05-18T20:46:13.390Z,61.42
2019-05-18T20:48:44.518Z,60.87
2019-05-18T20:51:15.896Z,61.17
2019-05-18T20:53:47.091Z,63.29
2019-05-18T20:56:17.987Z,63.35
2019-05-18T20:58:49.253Z,62.87
2019-05-18T21:01:20.348Z,63.26
2019-05-18T21:03:51.626Z,63.63
2019-05-18T21:06:23.057Z,63.87
2019-05-18T21:08:54.329Z,63.69
2019-05-18T21:11:25.539Z,64.08
2019-05-18T21:13:57.763Z,64.21
2019-05-18T21:16:29.084Z,64.51
2019-05-18T21:19:00.270Z,64.65
2019-05-18T21:21:31.570Z,64.94
2019-05-18T21:24:02.771Z,65.31
2019-05-18T21:26:33.808Z,65.11
2019-05-18T21:29:05.805Z,65.85
2019-05-18T21:31:36.973Z,65.80
2019-05-18T21:34:08.430Z,66.21
2019-05-18T21:36:39.633Z,66.14
2019-05-18T21:39:10.790Z,65.83
2019-05-18T21:41:41.873Z,66.19
2019-05-18T21:44:13.092Z,66.30
2019-05-18T21:46:44.306Z,66.74
2019-05-18T21:49:15.450Z,66.10
2019-05-18T21:51:46.529Z,66.89
2019-05-18T21:54:17.737Z,67.97
2019-05-18T21:56:48.920Z,67.49
2019-05-18T21:59:20.102Z,66.84
2019-05-18T22:01:51.320Z,66.92
2019-05-18T22:04:22.515Z,67.85
2019-05-18T22:06:53.752Z,66.81
2019-05-18T22:09:24.989Z,67.63
2019-05-18T22:11:56.511Z,67.18
2019-05-18T22:14:27.877Z,66.26
2019-05-18T22:16:59.070Z,63.62
2019-05-18T22:19:30.569Z,62.61
2019-05-18T22:22:01.760Z,68.05
2019-05-18T22:24:33.039Z,68.56
2019-05-18T22:27:04.318Z,67.20
2019-05-18T22:29:36.293Z,65.82
2019-05-18T22:32:07.535Z,67.25
2019-05-18T22:34:39.436Z,68.35
2019-05-18T22:37:10.854Z,67.21
2019-05-18T22:39:41.772Z,66.64
2019-05-18T22:42:14.456Z,65.87
2019-05-18T22:44:46.074Z,66.22
2019-05-18T22:47:18.609Z,67.07
2019-05-18T22:49:50.707Z,68.00
2019-05-18T22:52:22.030Z,66.73
2019-05-18T22:54:53.439Z,66.10
2019-05-18T22:57:25.025Z,68.16
2019-05-18T22:59:56.920Z,66.43
2019-05-18T23:02:28.134Z,65.72
2019-05-18T23:04:59.403Z,66.42
2019-05-18T23:07:30.895Z,66.63
2019-05-18T23:10:02.104Z,67.63
2019-05-18T23:12:33.671Z,68.14
2019-05-18T23:15:05.236Z,66.98
2019-05-18T23:17:36.813Z,68.61
2019-05-18T23:20:08.822Z,68.29
2019-05-18T23:22:39.851Z,66.76
2019-05-18T23:25:11.282Z,69.28
2019-05-18T23:27:42.309Z,69.23
2019-05-18T23:30:14.523Z,69.66
2019-05-18T23:32:45.907Z,69.95
2019-05-18T23:35:17.064Z,70.57
2019-05-18T23:37:47.970Z,71.19
2019-05-18T23:40:19.779Z,71.79
2019-05-18T23:42:51.117Z,72.08
2019-05-18T23:45:22.666Z,72.11
2019-05-18T23:47:53.773Z,71.75
2019-05-18T23:50:25.072Z,71.73
2019-05-18T23:52:56.173Z,71.92
2019-05-18T23:55:27.386Z,71.92
2019-05-18T23:58:04.968Z,73.13
